Bow Heron — DYTN — position and weather

sailwx.info

Track history (hours):
 
Tides and Currents Weather Stations Pressure Air Temp Water Temp Dewpoint Dewpoint Depression Visibility Wind Speed Wind Dir Waves Ship Positions

Bow Heron

Last reported at 2015-May-23 21:34 UTC. Time now 2015-May-27 05:41 UTC.
Position N 31°16' E 032°19'.

Length 174 m; draft 10.9 m.

Type: Ship (hazmat cat B). MMSI: 548779000.

Date/timePositionNaut miles runAvg speedWind from/ knotsBaromVisibWave heightAir tempDewpointWater temp
2015-May-23 21:34N 31°16' E 032°19'7 7.0
2015-May-23 20:33N 31°23' E 032°20'2 1.9
2015-May-23 19:31N 31°23' E 032°18'0 0.0
2015-May-23 18:28N 31°23' E 032°18'0 0.0
2015-May-23 17:31N 31°23' E 032°18'0 0.0
2015-May-23 16:22N 31°23' E 032°18'3 1.6
2015-May-23 14:13N 31°26' E 032°18'811.5
2015-May-23 13:33N 31°32' E 032°12'1313.3
2015-May-23 12:33N 31°42' E 032°01'1414.5
2015-May-23 11:34N 31°50' E 031°48'1514.7
2015-May-23 10:34N 31°58' E 031°33'1414.5
2015-May-23 09:34N 32°03' E 031°17'4314.2
2015-May-23 06:33N 32°16' E 030°29'1414.0
2015-May-23 05:33N 32°20' E 030°13'3114.7
2015-May-23 03:27N 32°29' E 029°38'1414.8
2015-May-23 02:28N 32°34' E 029°22'1415.0
2015-May-23 01:33N 32°38' E 029°07'1514.8
2015-May-23 00:33N 32°42' E 028°50'59714.9
2015-May-21 08:25N 35°40' E 017°20'1314.4
2015-May-21 07:30N 35°43' E 017°05'1414.3
2015-May-21 06:33N 35°47' E 016°49'1514.5
2015-May-21 05:33N 35°52' E 016°32'1514.7
2015-May-21 04:33N 35°56' E 016°15'1414.6
2015-May-21 03:33N 36°01' E 015°58'1514.5
2015-May-21 02:33N 36°05' E 015°40'1514.7
2015-May-21 01:33N 36°09' E 015°23'1515.1
2015-May-21 00:33N 36°14' E 015°05'1515.0
2015-May-20 23:33N 36°18' E 014°47'1515.0
2015-May-20 22:33N 36°22' E 014°30'1514.8
2015-May-20 21:33N 36°27' E 014°12'1515.5
2015-May-20 20:33N 36°32' E 013°54'1515.3
2015-May-20 19:33N 36°36' E 013°36'1514.8
2015-May-20 18:33N 36°40' E 013°18'1514.8
2015-May-20 17:33N 36°45' E 013°00'1514.8
2015-May-20 16:33N 36°49' E 012°43'1515.1
2015-May-20 15:34N 36°53' E 012°24'1515.0
2015-May-20 14:33N 36°57' E 012°06'1514.6
2015-May-20 13:33N 37°04' E 011°50'2015.1
2015-May-20 12:14N 37°13' E 011°28'1315.3
2015-May-20 11:23N 37°20' E 011°14'1215.1
2015-May-20 10:33N 37°25' E 010°60'2015.1
2015-May-20 09:14N 37°30' E 010°35'1015.0
2015-May-20 08:33N 37°32' E 010°23'12014.8
2015-May-20 00:25N 37°36' E 007°51'23914.9
2015-May-19 08:18N 37°04' E 002°53'1115.2
2015-May-19 07:33N 37°01' E 002°39'3215.5
2015-May-19 05:30N 36°55' E 002°00'1515.2
2015-May-19 04:33N 36°52' E 001°42'1515.4
2015-May-19 03:34N 36°49' E 001°24'1615.7
2015-May-19 02:33N 36°45' E 001°05'1615.6
2015-May-19 01:33N 36°42' E 000°45'1615.9
2015-May-19 00:33N 36°40' E 000°26'4615.4
2015-May-18 21:32N 36°33' W 000°31'1414.4
2015-May-18 20:33N 36°30' W 000°49'4113.6
2015-May-18 17:31N 36°22' W 001°39'5613.8
2015-May-18 13:26N 36°15' W 002°48'11614.7
2015-May-18 05:33N 36°01' W 005°11'1212.0
2015-May-18 04:33N 36°07' W 005°24'4 2.8
2015-May-18 03:15N 36°10' W 005°25'0 0.1
2015-May-18 02:30N 36°10' W 005°25'0 0.0
2015-May-18 01:30N 36°10' W 005°25'0 0.2
2015-May-18 00:33N 36°10' W 005°25'0 0.1
2015-May-17 23:33N 36°10' W 005°25'0 0.1
2015-May-17 22:18N 36°10' W 005°25'0 0.0
2015-May-17 19:12N 36°10' W 005°25'0 0.1
2015-May-17 18:30N 36°10' W 005°25'0 0.0
2015-May-17 17:27N 36°10' W 005°25'0 0.0
2015-May-17 16:12N 36°10' W 005°25'1 0.0
2015-May-16 22:29N 36°11' W 005°24'3 3.7
2015-May-16 21:33N 36°07' W 005°23'10 9.6
2015-May-16 20:33N 35°58' W 005°27'19013.6
2015-May-16 06:33N 36°01' W 009°23'1712.4
2015-May-16 05:13N 36°04' W 009°43'13812.9
2015-May-15 18:29N 36°24' W 012°32'17113.8
2015-May-15 06:05N 37°30' W 015°50'6514.1
2015-May-15 01:30N 37°56' W 017°05'2814.6
2015-May-14 23:33N 38°07' W 017°38'2114.4
2015-May-14 22:07N 38°15' W 018°02'13914.2
2015-May-14 12:20N 39°02' W 020°50'4114.3
2015-May-14 09:29N 39°08' W 021°41'11914.6
2015-May-14 01:18N 39°28' W 024°13'2814.2
2015-May-13 23:20N 39°33' W 024°49'1214.2
2015-May-13 22:27N 39°35' W 025°05'  
Track history (hours):
 
Tides and Currents Weather Stations Pressure Air Temp Water Temp Dewpoint Dewpoint Depression Visibility Wind Speed Wind Dir Waves Ship Positions

Bow Heron

Last reported at 2015-May-23 21:34 UTC. Time now 2015-May-27 05:41 UTC.
Position N 31°16' E 032°19'.

Length 174 m; draft 10.9 m.

Type: Ship (hazmat cat B). MMSI: 548779000.

Date/timePositionNaut miles runAvg speedWind from/ knotsBaromVisibWave heightAir tempDewpointWater temp
2015-May-23 21:34N 31°16' E 032°19'7 7.0
2015-May-23 20:33N 31°23' E 032°20'2 1.9
2015-May-23 19:31N 31°23' E 032°18'0 0.0
2015-May-23 18:28N 31°23' E 032°18'0 0.0
2015-May-23 17:31N 31°23' E 032°18'0 0.0
2015-May-23 16:22N 31°23' E 032°18'3 1.6
2015-May-23 14:13N 31°26' E 032°18'811.5
2015-May-23 13:33N 31°32' E 032°12'1313.3
2015-May-23 12:33N 31°42' E 032°01'1414.5
2015-May-23 11:34N 31°50' E 031°48'1514.7
2015-May-23 10:34N 31°58' E 031°33'1414.5
2015-May-23 09:34N 32°03' E 031°17'4314.2
2015-May-23 06:33N 32°16' E 030°29'1414.0
2015-May-23 05:33N 32°20' E 030°13'3114.7
2015-May-23 03:27N 32°29' E 029°38'1414.8
2015-May-23 02:28N 32°34' E 029°22'1415.0
2015-May-23 01:33N 32°38' E 029°07'1514.8
2015-May-23 00:33N 32°42' E 028°50'59714.9
2015-May-21 08:25N 35°40' E 017°20'1314.4
2015-May-21 07:30N 35°43' E 017°05'1414.3
2015-May-21 06:33N 35°47' E 016°49'1514.5
2015-May-21 05:33N 35°52' E 016°32'1514.7
2015-May-21 04:33N 35°56' E 016°15'1414.6
2015-May-21 03:33N 36°01' E 015°58'1514.5
2015-May-21 02:33N 36°05' E 015°40'1514.7
2015-May-21 01:33N 36°09' E 015°23'1515.1
2015-May-21 00:33N 36°14' E 015°05'1515.0
2015-May-20 23:33N 36°18' E 014°47'1515.0
2015-May-20 22:33N 36°22' E 014°30'1514.8
2015-May-20 21:33N 36°27' E 014°12'1515.5
2015-May-20 20:33N 36°32' E 013°54'1515.3
2015-May-20 19:33N 36°36' E 013°36'1514.8
2015-May-20 18:33N 36°40' E 013°18'1514.8
2015-May-20 17:33N 36°45' E 013°00'1514.8
2015-May-20 16:33N 36°49' E 012°43'1515.1
2015-May-20 15:34N 36°53' E 012°24'1515.0
2015-May-20 14:33N 36°57' E 012°06'1514.6
2015-May-20 13:33N 37°04' E 011°50'2015.1
2015-May-20 12:14N 37°13' E 011°28'1315.3
2015-May-20 11:23N 37°20' E 011°14'1215.1
2015-May-20 10:33N 37°25' E 010°60'2015.1
2015-May-20 09:14N 37°30' E 010°35'1015.0
2015-May-20 08:33N 37°32' E 010°23'12014.8
2015-May-20 00:25N 37°36' E 007°51'23914.9
2015-May-19 08:18N 37°04' E 002°53'1115.2
2015-May-19 07:33N 37°01' E 002°39'3215.5
2015-May-19 05:30N 36°55' E 002°00'1515.2
2015-May-19 04:33N 36°52' E 001°42'1515.4
2015-May-19 03:34N 36°49' E 001°24'1615.7
2015-May-19 02:33N 36°45' E 001°05'1615.6
2015-May-19 01:33N 36°42' E 000°45'1615.9
2015-May-19 00:33N 36°40' E 000°26'4615.4
2015-May-18 21:32N 36°33' W 000°31'1414.4
2015-May-18 20:33N 36°30' W 000°49'4113.6
2015-May-18 17:31N 36°22' W 001°39'5613.8
2015-May-18 13:26N 36°15' W 002°48'11614.7
2015-May-18 05:33N 36°01' W 005°11'1212.0
2015-May-18 04:33N 36°07' W 005°24'4 2.8
2015-May-18 03:15N 36°10' W 005°25'0 0.1
2015-May-18 02:30N 36°10' W 005°25'0 0.0
2015-May-18 01:30N 36°10' W 005°25'0 0.2
2015-May-18 00:33N 36°10' W 005°25'0 0.1
2015-May-17 23:33N 36°10' W 005°25'0 0.1
2015-May-17 22:18N 36°10' W 005°25'0 0.0
2015-May-17 19:12N 36°10' W 005°25'0 0.1
2015-May-17 18:30N 36°10' W 005°25'0 0.0
2015-May-17 17:27N 36°10' W 005°25'0 0.0
2015-May-17 16:12N 36°10' W 005°25'1 0.0
2015-May-16 22:29N 36°11' W 005°24'3 3.7
2015-May-16 21:33N 36°07' W 005°23'10 9.6
2015-May-16 20:33N 35°58' W 005°27'19013.6
2015-May-16 06:33N 36°01' W 009°23'1712.4
2015-May-16 05:13N 36°04' W 009°43'13812.9
2015-May-15 18:29N 36°24' W 012°32'17113.8
2015-May-15 06:05N 37°30' W 015°50'6514.1
2015-May-15 01:30N 37°56' W 017°05'2814.6
2015-May-14 23:33N 38°07' W 017°38'2114.4
2015-May-14 22:07N 38°15' W 018°02'13914.2
2015-May-14 12:20N 39°02' W 020°50'4114.3
2015-May-14 09:29N 39°08' W 021°41'11914.6
2015-May-14 01:18N 39°28' W 024°13'2814.2
2015-May-13 23:20N 39°33' W 024°49'1214.2
2015-May-13 22:27N 39°35' W 025°05'  

Dump ship's entire track history